Time;durP1;ratioP1;P1;durP2;ratioP2;P2;SDS_P1;SDS_P2;PMS_P1;PMS_P2;Temp;Humidity;BMP_temperature;BMP_pressure;BME280_temperature;BME280_humidity;BME280_pressure;Samples;Min_cycle;Max_cycle;Signal;HPM_P1;HPM_P2
2022/10/23 00:00:59;;;;;;;15.48;10.80;;;;;;;13.84;47.66;94371.00;5034309;28;20496;-81
2022/10/23 00:03:24;;;;;;;17.52;10.80;;;;;;;13.86;47.70;94360.75;5030286;28;20027;-79
2022/10/23 00:05:50;;;;;;;18.10;11.20;;;;;;;13.73;47.69;94352.63;5037577;28;20329;-78
2022/10/23 00:08:15;;;;;;;14.43;10.35;;;;;;;13.62;47.78;94324.66;5030020;28;20021;-78
2022/10/23 00:10:42;;;;;;;12.98;10.50;;;;;;;13.70;47.83;94334.53;5033838;28;20472;-78
2022/10/23 00:13:08;;;;;;;16.80;10.93;;;;;;;13.55;47.99;94343.03;5035639;28;20033;-78
2022/10/23 00:15:35;;;;;;;14.38;10.07;;;;;;;13.67;47.96;94345.88;5033074;28;20026;-78
2022/10/23 00:18:00;;;;;;;13.90;9.65;;;;;;;13.57;48.03;94340.06;5036879;28;20143;-78
2022/10/23 00:20:26;;;;;;;15.63;10.20;;;;;;;13.54;48.10;94338.81;5036310;28;20103;-78
2022/10/23 00:22:51;;;;;;;15.35;10.75;;;;;;;13.49;48.05;94319.50;5036296;28;20036;-80
2022/10/23 00:25:17;;;;;;;17.10;11.27;;;;;;;13.48;47.89;94294.66;5037222;28;20183;-80
2022/10/23 00:27:43;;;;;;;15.05;10.75;;;;;;;13.70;47.84;94325.72;5038220;28;20249;-79
2022/10/23 00:30:10;;;;;;;15.73;8.77;;;;;;;13.71;47.68;94320.06;5034421;28;20112;-78
2022/10/23 00:32:35;;;;;;;15.13;10.55;;;;;;;13.41;47.51;94286.34;5040300;28;20036;-78
2022/10/23 00:35:01;;;;;;;14.32;9.27;;;;;;;13.68;47.59;94312.72;5033430;28;20029;-79
2022/10/23 00:37:27;;;;;;;16.75;10.30;;;;;;;13.50;48.16;94326.38;5035474;28;20056;-78
2022/10/23 00:39:52;;;;;;;13.77;9.07;;;;;;;13.40;48.19;94356.91;5037187;28;20029;-80
2022/10/23 00:42:19;;;;;;;15.32;10.13;;;;;;;13.48;48.09;94350.00;5034385;28;20037;-80
2022/10/23 00:44:45;;;;;;;18.55;10.80;;;;;;;13.29;48.55;94356.47;5039169;28;20020;-79
2022/10/23 00:47:12;;;;;;;21.45;9.75;;;;;;;13.29;48.25;94332.44;5032637;28;20033;-79
2022/10/23 00:49:37;;;;;;;17.25;10.00;;;;;;;13.36;47.98;94326.59;5036335;28;20024;-79
2022/10/23 00:52:06;;;;;;;12.48;8.50;;;;;;;13.34;47.90;94315.44;5038193;28;20028;-81
2022/10/23 00:54:36;;;;;;;13.95;7.65;;;;;;;13.21;48.10;94292.34;5036893;28;20041;-80
2022/10/23 00:57:06;;;;;;;11.80;8.30;;;;;;;13.40;47.86;94294.69;5032168;28;20079;-79
2022/10/23 00:59:32;;;;;;;13.13;8.65;;;;;;;13.58;47.64;94318.38;5033242;28;20018;-79
2022/10/23 01:01:58;;;;;;;15.85;8.38;;;;;;;13.48;48.06;94321.38;5036598;28;20824;-78
2022/10/23 01:04:24;;;;;;;12.07;7.90;;;;;;;13.39;48.30;94283.22;5037982;28;20029;-79
2022/10/23 01:06:56;;;;;;;16.13;8.68;;;;;;;13.58;48.24;94310.34;5036620;28;20067;-78
2022/10/23 01:09:30;;;;;;;15.35;8.82;;;;;;;13.58;48.13;94296.19;5028815;28;20472;-81
2022/10/23 01:12:11;;;;;;;16.77;7.78;;;;;;;13.50;47.94;94268.38;5032314;28;20108;-80
2022/10/23 01:15:04;;;;;;;13.98;7.95;;;;;;;13.28;48.46;94269.41;5035204;28;20025;-79
2022/10/23 01:17:40;;;;;;;13.50;7.93;;;;;;;13.22;48.65;94294.72;5032175;28;20083;-78
2022/10/23 01:20:11;;;;;;;13.65;7.85;;;;;;;13.36;48.34;94318.56;5037604;28;20025;-78
2022/10/23 01:22:58;;;;;;;12.68;7.88;;;;;;;13.49;47.94;94346.22;5032673;28;20053;-79
2022/10/23 01:25:43;;;;;;;13.77;10.30;;;;;;;13.37;48.51;94376.25;5034365;28;20029;-81
2022/10/23 01:28:13;;;;;;;22.42;11.35;;;;;;;13.22;48.16;94353.47;5034058;28;20022;-80
2022/10/23 01:30:42;;;;;;;23.50;13.43;;;;;;;13.14;48.67;94356.16;5033019;28;20117;-78
2022/10/23 01:33:21;;;;;;;23.98;14.60;;;;;;;13.48;48.08;94403.44;5034719;28;20493;-79
2022/10/23 01:35:59;;;;;;;20.48;12.85;;;;;;;13.17;49.02;94398.25;5033437;28;20033;-79
2022/10/23 01:38:30;;;;;;;20.50;13.02;;;;;;;13.04;49.35;94424.03;5035328;28;20040;-78
2022/10/23 01:41:01;;;;;;;21.55;14.10;;;;;;;13.06;49.58;94413.00;5035017;28;20028;-78
2022/10/23 01:43:35;;;;;;;25.55;15.70;;;;;;;13.13;49.51;94418.69;5033318;28;20057;-78
2022/10/23 01:46:06;;;;;;;23.45;14.13;;;;;;;13.12;49.14;94396.53;5035457;28;20025;-77
2022/10/23 01:48:33;;;;;;;22.95;13.68;;;;;;;13.07;49.22;94385.22;5038126;28;20477;-79
2022/10/23 01:51:03;;;;;;;26.67;15.13;;;;;;;13.22;49.12;94401.56;5034140;28;20550;-79
2022/10/23 01:53:32;;;;;;;28.90;17.02;;;;;;;12.95;49.40;94379.72;5030946;28;20021;-78
2022/10/23 01:56:01;;;;;;;27.08;16.23;;;;;;;13.27;49.62;94388.03;5030409;28;20048;-78
2022/10/23 01:58:29;;;;;;;33.50;15.88;;;;;;;13.23;49.53;94375.63;5031196;28;20282;-79
2022/10/23 02:01:00;;;;;;;22.02;15.02;;;;;;;13.09;50.23;94377.69;5027161;28;20087;-81
2022/10/23 02:03:29;;;;;;;21.95;14.80;;;;;;;13.14;49.72;94356.94;5032441;28;20037;-80
2022/10/23 02:05:54;;;;;;;21.88;13.32;;;;;;;13.22;48.94;94342.00;5035279;28;20034;-77
2022/10/23 02:08:20;;;;;;;21.05;13.05;;;;;;;13.32;48.91;94366.50;5034640;28;20090;-79
2022/10/23 02:10:50;;;;;;;23.98;14.18;;;;;;;13.35;49.07;94381.13;5034129;28;20045;-77
2022/10/23 02:13:28;;;;;;;20.67;13.90;;;;;;;13.01;49.08;94354.44;5034584;28;20041;-79
2022/10/23 02:16:33;;;;;;;22.05;14.40;;;;;;;13.20;48.90;94385.06;5034002;28;20029;-80
2022/10/23 02:19:14;;;;;;;29.02;15.02;;;;;;;13.34;48.91;94408.94;5038059;28;20381;-80
2022/10/23 02:22:08;;;;;;;23.85;15.10;;;;;;;13.22;48.74;94406.91;5033516;28;20035;-80
2022/10/23 02:24:42;;;;;;;26.33;14.15;;;;;;;13.36;48.89;94444.13;5033927;28;20697;-78
2022/10/23 02:27:12;;;;;;;22.88;12.82;;;;;;;13.37;49.04;94440.38;5028582;28;20039;-79
2022/10/23 02:29:44;;;;;;;19.00;12.52;;;;;;;13.39;48.89;94443.53;5030826;28;20025;-80
2022/10/23 02:32:11;;;;;;;18.52;12.43;;;;;;;13.28;49.01;94427.03;5031167;28;20028;-79
2022/10/23 02:34:36;;;;;;;17.92;11.00;;;;;;;13.27;48.76;94424.66;5031902;28;20025;-79
2022/10/23 02:37:02;;;;;;;17.25;11.20;;;;;;;13.25;48.43;94421.53;5031170;28;20025;-79
2022/10/23 02:39:28;;;;;;;19.77;9.90;;;;;;;13.14;48.36;94388.22;5031928;28;20032;-79
2022/10/23 02:41:56;;;;;;;21.08;10.13;;;;;;;13.28;48.70;94420.88;5032745;28;20024;-78
2022/10/23 02:44:33;;;;;;;19.85;11.40;;;;;;;13.30;48.51;94413.31;5031781;28;20120;-81
2022/10/23 02:47:23;;;;;;;16.27;10.80;;;;;;;13.21;48.42;94388.50;5036571;28;20025;-81
2022/10/23 02:50:16;;;;;;;12.38;8.80;;;;;;;13.38;47.94;94411.78;5032482;28;20033;-79
2022/10/23 02:52:53;;;;;;;13.52;9.05;;;;;;;13.41;48.31;94422.59;5029678;28;20029;-79
2022/10/23 02:55:37;;;;;;;15.10;9.25;;;;;;;13.50;48.25;94422.59;5035936;28;20040;-80
2022/10/23 02:58:55;;;;;;;14.13;9.50;;;;;;;13.48;48.36;94414.91;5027733;28;20024;-79
2022/10/23 03:01:28;;;;;;;16.75;9.77;;;;;;;13.48;48.28;94422.94;5014347;28;20445;-79
2022/10/23 03:03:58;;;;;;;16.30;9.00;;;;;;;13.36;48.21;94396.03;4994673;28;20063;-79
2022/10/23 03:06:24;;;;;;;12.27;8.40;;;;;;;13.51;47.88;94434.84;5024261;28;20044;-81
2022/10/23 03:08:57;;;;;;;16.67;7.88;;;;;;;13.44;47.53;94434.56;5032804;28;20027;-80
2022/10/23 03:11:22;;;;;;;16.23;9.13;;;;;;;13.49;47.36;94429.84;5031955;28;20378;-82
2022/10/23 03:13:47;;;;;;;14.55;9.13;;;;;;;13.52;47.81;94441.78;5036122;28;20034;-78
2022/10/23 03:16:13;;;;;;;12.73;8.85;;;;;;;13.57;47.65;94434.38;5033096;28;20027;-78
2022/10/23 03:18:38;;;;;;;13.60;7.50;;;;;;;13.57;47.24;94423.69;5031376;28;20033;-79
2022/10/23 03:21:04;;;;;;;11.38;7.60;;;;;;;13.67;46.68;94427.97;5031425;28;20041;-80
2022/10/23 03:23:29;;;;;;;18.48;7.55;;;;;;;13.36;46.09;94366.66;5034129;28;20445;-78
2022/10/23 03:25:55;;;;;;;9.57;6.53;;;;;;;13.69;45.47;94421.19;5032349;28;20468;-79
2022/10/23 03:28:21;;;;;;;9.52;5.47;;;;;;;13.71;44.67;94445.72;5037210;28;20111;-80
2022/10/23 03:30:46;;;;;;;11.10;5.07;;;;;;;13.76;44.39;94444.75;5031667;28;20021;-81
2022/10/23 03:33:12;;;;;;;9.43;4.78;;;;;;;13.84;44.49;94440.53;5031477;28;20099;-79
2022/10/23 03:35:37;;;;;;;10.13;5.63;;;;;;;13.87;44.71;94443.34;5031377;28;20116;-78
2022/10/23 03:38:02;;;;;;;8.20;4.35;;;;;;;13.87;44.05;94442.53;5029103;28;20408;-78
2022/10/23 03:40:28;;;;;;;8.50;5.35;;;;;;;13.97;43.80;94432.28;5032362;28;20105;-78
2022/10/23 03:42:53;;;;;;;9.45;4.78;;;;;;;13.94;44.19;94432.13;5031731;28;20021;-78
2022/10/23 03:45:19;;;;;;;13.60;5.88;;;;;;;14.18;44.07;94459.13;5035128;28;20380;-77
2022/10/23 03:47:44;;;;;;;7.80;4.68;;;;;;;14.08;44.64;94454.13;5036367;28;20025;-79
2022/10/23 03:50:12;;;;;;;9.50;4.63;;;;;;;14.14;44.53;94468.91;5036648;28;20032;-78
2022/10/23 03:52:38;;;;;;;22.90;7.15;;;;;;;14.14;44.69;94468.91;5039198;28;20493;-79
2022/10/23 03:55:03;;;;;;;9.02;5.82;;;;;;;14.03;44.70;94448.97;5036720;28;20029;-78
2022/10/23 03:57:29;;;;;;;14.23;6.63;;;;;;;14.02;44.90;94458.09;5035021;28;20049;-77
2022/10/23 03:59:54;;;;;;;9.60;5.57;;;;;;;14.10;44.70;94479.44;5037716;28;20511;-79
2022/10/23 04:02:20;;;;;;;13.23;5.80;;;;;;;13.91;44.63;94462.97;5038870;28;20108;-81
2022/10/23 04:04:45;;;;;;;8.95;4.75;;;;;;;13.83;44.52;94452.31;5038443;28;20044;-78
2022/10/23 04:07:11;;;;;;;11.20;4.88;;;;;;;13.82;44.09;94461.44;5035154;28;20110;-79
2022/10/23 04:09:36;;;;;;;14.82;5.38;;;;;;;13.94;44.17;94490.97;5032039;28;20127;-78
2022/10/23 04:12:02;;;;;;;7.85;4.43;;;;;;;13.82;42.75;94480.94;5036522;28;20030;-78
2022/10/23 04:14:27;;;;;;;10.23;5.43;;;;;;;13.72;42.25;94482.03;5031737;28;20057;-80
2022/10/23 04:16:53;;;;;;;6.70;4.03;;;;;;;13.75;42.18;94485.97;5039610;28;20319;-79
2022/10/23 04:19:18;;;;;;;10.98;4.43;;;;;;;13.66;42.33;94485.19;5032130;28;20022;-79
2022/10/23 04:21:44;;;;;;;10.27;3.95;;;;;;;13.60;41.99;94487.22;5037111;28;20740;-79
2022/10/23 04:24:09;;;;;;;4.55;3.20;;;;;;;13.42;41.68;94442.88;5033485;28;20032;-78
2022/10/23 04:26:35;;;;;;;7.38;3.60;;;;;;;13.66;41.37;94475.28;5035824;28;20124;-79
2022/10/23 04:29:00;;;;;;;6.97;3.90;;;;;;;13.47;41.38;94437.38;5034726;28;20521;-78
2022/10/23 04:31:26;;;;;;;7.35;3.75;;;;;;;13.69;41.02;94473.88;5031557;28;20061;-79
2022/10/23 04:33:51;;;;;;;5.22;3.45;;;;;;;13.79;40.77;94475.44;5033784;28;20070;-79
2022/10/23 04:36:16;;;;;;;7.90;3.97;;;;;;;13.67;40.24;94476.84;5035548;28;20096;-79
2022/10/23 04:38:42;;;;;;;10.82;3.88;;;;;;;13.56;40.94;94454.19;5038431;28;20164;-81
2022/10/23 04:41:07;;;;;;;8.40;3.85;;;;;;;13.77;40.32;94466.94;5035270;28;20037;-79
2022/10/23 04:43:33;;;;;;;7.50;4.13;;;;;;;13.61;40.30;94429.22;5035776;28;20026;-78
2022/10/23 04:45:58;;;;;;;6.45;4.15;;;;;;;13.62;40.99;94457.53;5036197;28;20119;-79
2022/10/23 04:48:24;;;;;;;7.10;4.00;;;;;;;13.55;42.08;94467.84;5034423;28;20280;-80
2022/10/23 04:51:03;;;;;;;8.02;4.30;;;;;;;13.57;42.54;94471.81;5035351;28;20053;-80
2022/10/23 04:53:28;;;;;;;6.28;4.20;;;;;;;13.55;42.73;94457.97;5037000;28;20047;-79
2022/10/23 04:55:56;;;;;;;9.63;5.43;;;;;;;13.69;42.01;94463.94;5034890;28;20473;-80
2022/10/23 04:58:22;;;;;;;6.35;3.97;;;;;;;13.84;41.33;94470.69;5037149;28;20035;-79
2022/10/23 05:00:48;;;;;;;8.02;4.53;;;;;;;14.05;41.35;94484.19;5034741;28;20060;-81
2022/10/23 05:03:15;;;;;;;9.13;4.68;;;;;;;13.92;41.35;94466.44;5037696;28;20021;-78
2022/10/23 05:05:41;;;;;;;6.88;4.25;;;;;;;14.02;41.32;94487.50;5036210;28;20057;-79
2022/10/23 05:08:07;;;;;;;5.85;4.13;;;;;;;14.08;41.36;94497.69;5036276;28;20047;-80
2022/10/23 05:10:32;;;;;;;9.40;4.90;;;;;;;13.81;41.69;94471.34;5037467;28;20108;-79
2022/10/23 05:12:58;;;;;;;8.13;4.47;;;;;;;14.02;42.05;94495.53;5035195;28;20895;-78
2022/10/23 05:15:23;;;;;;;11.02;4.10;;;;;;;14.15;42.15;94502.56;5036797;28;20558;-78
2022/10/23 05:17:51;;;;;;;11.55;4.28;;;;;;;14.15;41.90;94481.97;5032238;28;20119;-80
2022/10/23 05:20:21;;;;;;;7.95;4.90;;;;;;;14.37;41.96;94499.69;5035256;28;20056;-79
2022/10/23 05:22:51;;;;;;;6.38;4.13;;;;;;;14.35;42.30;94498.44;5034340;28;20389;-78
2022/10/23 05:25:17;;;;;;;7.78;4.32;;;;;;;14.19;43.59;94490.13;5026909;28;20753;-80
2022/10/23 05:27:43;;;;;;;4.55;4.00;;;;;;;14.18;44.15;94483.97;5035772;28;20025;-81
2022/10/23 05:30:10;;;;;;;8.88;4.07;;;;;;;14.38;44.06;94501.25;5039644;28;20021;-79
2022/10/23 05:32:36;;;;;;;7.50;4.45;;;;;;;14.31;44.99;94514.34;5032714;28;20467;-81
2022/10/23 05:35:07;;;;;;;7.30;4.30;;;;;;;14.33;45.38;94512.13;5034237;28;20098;-78
2022/10/23 05:37:33;;;;;;;12.27;4.97;;;;;;;14.29;45.55;94492.47;5030038;28;20045;-79
2022/10/23 05:39:58;;;;;;;5.82;4.57;;;;;;;14.42;45.59;94498.72;5035004;28;20079;-78
2022/10/23 05:42:23;;;;;;;10.65;4.60;;;;;;;14.58;46.29;94532.69;5033707;28;20464;-81
2022/10/23 05:44:49;;;;;;;7.28;4.78;;;;;;;14.60;46.62;94543.88;5032470;28;20098;-79
2022/10/23 05:47:14;;;;;;;12.95;4.65;;;;;;;14.53;47.16;94530.19;5032992;28;20571;-78
2022/10/23 05:49:40;;;;;;;8.98;4.78;;;;;;;14.62;47.25;94543.53;5035152;28;20040;-78
2022/10/23 05:52:05;;;;;;;8.00;4.50;;;;;;;14.54;47.46;94542.47;5034154;28;20126;-78
2022/10/23 05:54:31;;;;;;;8.50;4.88;;;;;;;14.44;47.92;94515.25;5033285;28;20018;-79
2022/10/23 05:56:56;;;;;;;8.68;3.45;;;;;;;14.66;48.68;94554.41;5035783;28;20033;-80
2022/10/23 05:59:22;;;;;;;15.65;5.47;;;;;;;14.38;49.43;94506.59;5037280;28;20692;-80
2022/10/23 06:01:47;;;;;;;6.63;4.63;;;;;;;14.60;50.06;94543.09;5038173;28;20037;-80
2022/10/23 06:04:13;;;;;;;10.27;4.45;;;;;;;14.56;50.74;94545.63;5031204;28;20524;-80
2022/10/23 06:06:38;;;;;;;9.98;4.68;;;;;;;14.41;51.80;94559.50;5030781;28;20021;-78
2022/10/23 06:09:04;;;;;;;5.55;3.92;;;;;;;14.41;52.41;94580.13;5026420;28;20025;-80
2022/10/23 06:11:29;;;;;;;6.32;4.35;;;;;;;14.13;53.05;94552.94;5033110;28;20057;-80
2022/10/23 06:13:55;;;;;;;6.63;4.03;;;;;;;14.05;53.94;94567.09;5034793;28;20556;-78
2022/10/23 06:16:25;;;;;;;8.20;3.95;;;;;;;13.98;54.63;94556.91;5032804;28;20025;-80
2022/10/23 06:18:51;;;;;;;7.25;3.60;;;;;;;14.12;54.73;94578.13;5029711;28;20017;-81
2022/10/23 06:21:17;;;;;;;7.10;4.07;;;;;;;13.73;55.55;94538.97;5029431;28;20028;-81
2022/10/23 06:23:44;;;;;;;7.00;3.83;;;;;;;13.94;56.04;94581.88;5032125;28;20408;-80
2022/10/23 06:26:11;;;;;;;10.10;4.45;;;;;;;13.85;56.25;94557.03;5025841;28;21009;-80
2022/10/23 06:28:37;;;;;;;6.78;4.32;;;;;;;14.15;55.81;94588.97;5031048;28;20021;-80
2022/10/23 06:31:04;;;;;;;10.35;4.10;;;;;;;13.82;55.95;94563.81;5028614;28;20664;-79
2022/10/23 06:33:30;;;;;;;6.03;3.60;;;;;;;14.09;55.77;94594.78;5035777;28;20083;-78
2022/10/23 06:35:55;;;;;;;8.40;4.80;;;;;;;14.13;55.63;94593.06;5032986;28;20325;-77
2022/10/23 06:38:21;;;;;;;9.63;3.63;;;;;;;14.21;55.07;94596.81;5028654;28;22154;-78
2022/10/23 06:40:54;;;;;;;11.70;4.10;;;;;;;14.27;54.81;94600.91;5025234;28;20025;-79
2022/10/23 06:43:19;;;;;;;7.00;3.85;;;;;;;14.31;54.70;94586.59;5031787;28;20032;-81
2022/10/23 06:45:44;;;;;;;11.35;4.25;;;;;;;14.36;54.03;94599.81;5031765;28;20484;-82
2022/10/23 06:48:10;;;;;;;8.43;4.40;;;;;;;14.31;53.70;94575.88;5030620;28;20504;-79
2022/10/23 06:50:37;;;;;;;10.20;4.68;;;;;;;14.58;53.48;94596.94;5028478;28;20404;-80
2022/10/23 06:53:04;;;;;;;5.97;4.72;;;;;;;14.73;52.89;94592.97;5035850;28;20583;-79
2022/10/23 06:55:30;;;;;;;9.38;4.90;;;;;;;14.91;52.39;94583.00;5030072;28;20163;-79
2022/10/23 06:57:56;;;;;;;6.72;4.03;;;;;;;15.18;51.39;94603.97;5029713;28;20458;-78
2022/10/23 07:00:21;;;;;;;7.88;4.30;;;;;;;14.98;51.03;94572.56;5027163;28;20060;-78
2022/10/23 07:02:47;;;;;;;7.45;4.38;;;;;;;15.18;51.40;94587.13;5029705;28;20029;-81
2022/10/23 07:05:12;;;;;;;10.63;5.07;;;;;;;15.19;51.07;94581.44;5030908;28;20174;-79
2022/10/23 07:07:38;;;;;;;10.18;4.97;;;;;;;15.43;50.98;94595.03;5028402;28;20025;-78
2022/10/23 07:10:04;;;;;;;8.32;3.63;;;;;;;15.50;50.85;94599.13;5034691;28;20027;-78
2022/10/23 07:12:29;;;;;;;7.63;3.88;;;;;;;15.57;50.11;94602.84;5026752;28;20030;-79
2022/10/23 07:14:54;;;;;;;8.60;3.15;;;;;;;15.69;50.27;94591.44;5033339;28;20060;-79
2022/10/23 07:17:20;;;;;;;7.22;3.65;;;;;;;15.71;49.57;94583.81;5032123;28;20024;-80
2022/10/23 07:19:46;;;;;;;7.30;3.25;;;;;;;15.99;49.17;94602.91;5028502;28;20061;-81
2022/10/23 07:22:12;;;;;;;4.20;2.70;;;;;;;15.97;48.95;94597.06;5031068;28;20391;-79
2022/10/23 07:24:38;;;;;;;7.38;3.05;;;;;;;15.99;48.86;94592.91;5030038;28;20021;-78
2022/10/23 07:27:04;;;;;;;4.55;2.78;;;;;;;15.95;48.29;94578.59;5028958;28;20104;-79
2022/10/23 07:29:30;;;;;;;6.35;2.22;;;;;;;15.99;48.64;94595.59;5026796;28;20144;-77
2022/10/23 07:31:56;;;;;;;4.93;2.42;;;;;;;15.89;47.49;94579.91;5029432;28;20408;-78
2022/10/23 07:34:22;;;;;;;11.43;3.00;;;;;;;15.92;48.29;94594.56;5027751;28;20037;-80
2022/10/23 07:36:48;;;;;;;7.07;2.97;;;;;;;15.95;47.65;94583.97;5025534;28;20454;-77
2022/10/23 07:39:14;;;;;;;6.07;3.92;;;;;;;16.06;47.73;94595.88;5021029;28;20480;-78
2022/10/23 07:41:39;;;;;;;4.72;2.75;;;;;;;16.13;47.42;94595.34;5031738;28;20682;-80
2022/10/23 07:44:04;;;;;;;4.53;2.65;;;;;;;16.03;47.84;94601.91;5029901;28;20444;-80
2022/10/23 07:46:30;;;;;;;6.78;2.83;;;;;;;15.72;48.11;94575.47;5032483;28;20021;-78
2022/10/23 07:48:55;;;;;;;7.13;2.70;;;;;;;15.66;48.02;94574.09;5026923;28;20536;-78
2022/10/23 07:51:21;;;;;;;8.77;3.38;;;;;;;15.80;48.70;94603.31;5032939;28;20169;-78
2022/10/23 07:53:47;;;;;;;4.13;3.22;;;;;;;15.85;48.55;94595.88;5030099;28;20538;-78
2022/10/23 07:56:21;;;;;;;7.00;3.03;;;;;;;15.84;47.93;94580.88;5030265;28;20032;-79
2022/10/23 07:58:46;;;;;;;4.55;2.10;;;;;;;15.91;48.07;94593.78;5030943;28;20032;-78
2022/10/23 08:01:19;;;;;;;6.63;2.80;;;;;;;15.85;48.38;94585.13;5028508;28;20013;-78
2022/10/23 08:03:44;;;;;;;5.15;2.60;;;;;;;16.06;48.18;94603.13;5029065;28;20121;-78
2022/10/23 08:06:10;;;;;;;3.45;2.50;;;;;;;16.17;48.23;94596.25;5027143;28;20021;-78
2022/10/23 08:08:36;;;;;;;7.03;2.85;;;;;;;16.29;47.48;94605.13;5029476;28;20025;-79
2022/10/23 08:11:01;;;;;;;5.25;3.03;;;;;;;16.29;47.63;94594.41;5030520;28;20082;-78
2022/10/23 08:13:26;;;;;;;3.25;2.90;;;;;;;16.56;47.21;94617.25;5029253;28;20114;-78
2022/10/23 08:15:52;;;;;;;6.85;3.35;;;;;;;16.23;46.67;94558.13;5024636;28;20162;-77
2022/10/23 08:18:19;;;;;;;5.07;2.65;;;;;;;16.70;46.66;94614.25;5029354;28;20032;-78
2022/10/23 08:20:46;;;;;;;3.40;2.58;;;;;;;16.72;46.18;94607.44;5031986;28;20039;-78
2022/10/23 08:23:15;;;;;;;7.30;2.83;;;;;;;16.75;46.25;94620.22;5021666;28;20024;-78
2022/10/23 08:25:41;;;;;;;9.27;4.80;;;;;;;16.58;45.97;94579.31;5022787;28;20029;-77
2022/10/23 08:28:08;;;;;;;5.72;2.58;;;;;;;16.42;46.43;94581.84;5026773;28;20485;-78
2022/10/23 08:30:35;;;;;;;5.60;4.10;;;;;;;16.44;46.52;94589.56;5026223;28;20060;-77
2022/10/23 08:33:04;;;;;;;4.35;3.13;;;;;;;16.56;47.07;94600.34;5045877;28;20057;-78
2022/10/23 08:35:30;;;;;;;5.32;3.80;;;;;;;16.29;47.21;94604.34;5031360;28;20123;-78
2022/10/23 08:37:55;;;;;;;3.80;2.22;;;;;;;16.39;47.67;94611.25;5029644;28;20042;-79
2022/10/23 08:40:22;;;;;;;6.55;2.90;;;;;;;16.47;47.37;94605.03;5029567;28;20037;-77
2022/10/23 08:43:11;;;;;;;5.00;2.85;;;;;;;16.52;47.46;94610.97;5024877;28;20088;-78
2022/10/23 08:45:43;;;;;;;3.65;2.40;;;;;;;16.60;47.29;94612.78;5035772;28;20029;-78
2022/10/23 08:48:15;;;;;;;6.30;3.20;;;;;;;16.72;47.54;94612.03;5029966;28;20436;-78
2022/10/23 08:50:44;;;;;;;7.18;2.67;;;;;;;16.70;46.72;94609.69;5024798;28;20091;-78
2022/10/23 08:53:28;;;;;;;5.47;2.90;;;;;;;16.79;46.58;94612.25;5022434;28;20527;-77
2022/10/23 08:56:02;;;;;;;4.70;2.70;;;;;;;16.67;46.93;94596.13;5031605;28;20025;-76
2022/10/23 08:58:56;;;;;;;6.78;3.05;;;;;;;17.01;46.66;94619.16;5036161;28;20056;-77
2022/10/23 09:01:46;;;;;;;3.35;2.45;;;;;;;16.99;45.79;94608.72;5030687;28;20033;-80
2022/10/23 09:04:14;;;;;;;5.38;2.45;;;;;;;17.03;45.63;94611.53;5029926;28;20041;-80
2022/10/23 09:06:45;;;;;;;2.90;2.30;;;;;;;17.08;45.78;94614.78;5031600;28;20025;-79
2022/10/23 09:09:20;;;;;;;5.25;2.65;;;;;;;17.02;45.27;94605.34;5029237;28;20013;-79
2022/10/23 09:12:05;;;;;;;4.68;2.50;;;;;;;17.18;45.70;94603.63;5030074;28;20033;-79
2022/10/23 09:14:52;;;;;;;5.35;2.28;;;;;;;17.25;45.49;94608.44;5032125;28;20026;-79
2022/10/23 09:17:29;;;;;;;5.68;2.30;;;;;;;16.94;45.33;94581.28;5031155;28;20056;-79
2022/10/23 09:19:59;;;;;;;5.40;2.35;;;;;;;17.15;45.45;94596.25;5029902;28;20022;-79
2022/10/23 09:22:26;;;;;;;5.80;2.10;;;;;;;17.05;45.40;94583.22;5030290;28;20040;-78
2022/10/23 09:24:51;;;;;;;5.10;1.85;;;;;;;17.03;45.14;94568.53;5028785;28;20388;-77
2022/10/23 09:27:17;;;;;;;3.78;1.60;;;;;;;17.02;44.78;94558.88;5033266;28;20512;-79
2022/10/23 09:29:48;;;;;;;2.72;1.70;;;;;;;17.30;45.21;94599.38;5030572;28;20401;-79
2022/10/23 09:32:13;;;;;;;4.85;3.13;;;;;;;17.28;45.39;94574.72;5029133;28;20029;-80
2022/10/23 09:34:51;;;;;;;7.43;2.22;;;;;;;17.45;45.35;94599.47;5032935;28;20056;-79
2022/10/23 09:37:20;;;;;;;4.93;2.38;;;;;;;17.50;45.15;94568.91;5031443;28;20047;-78
2022/10/23 09:39:45;;;;;;;3.28;1.80;;;;;;;17.55;44.19;94568.66;5032728;28;20094;-78
2022/10/23 09:42:23;;;;;;;2.70;1.50;;;;;;;17.60;43.53;94542.28;5032030;28;21401;-80
2022/10/23 09:44:51;;;;;;;4.35;2.30;;;;;;;17.93;43.44;94585.22;5028865;28;20619;-80
2022/10/23 09:47:19;;;;;;;3.40;1.70;;;;;;;17.77;43.42;94580.84;5028769;28;20110;-79
2022/10/23 09:50:03;;;;;;;3.63;2.20;;;;;;;17.72;43.45;94573.78;5031889;28;20511;-78
2022/10/23 09:52:34;;;;;;;3.30;2.58;;;;;;;17.80;44.08;94586.31;5030585;28;20425;-79
2022/10/23 09:55:02;;;;;;;3.42;2.53;;;;;;;17.79;43.94;94584.75;5029730;28;20025;-79
2022/10/23 09:57:35;;;;;;;13.20;2.90;;;;;;;17.81;43.69;94581.72;5027838;28;20036;-78
2022/10/23 10:00:06;;;;;;;3.53;1.50;;;;;;;17.74;42.70;94547.34;5031166;28;20388;-79
2022/10/23 10:02:35;;;;;;;3.88;1.77;;;;;;;17.91;42.22;94582.03;5029692;28;20031;-79
2022/10/23 10:05:37;;;;;;;6.22;1.85;;;;;;;18.01;42.60;94572.72;5031672;28;20143;-79
2022/10/23 10:08:20;;;;;;;4.53;2.13;;;;;;;18.02;42.88;94572.41;5027536;28;20061;-79
2022/10/23 10:11:04;;;;;;;3.42;2.75;;;;;;;18.07;42.78;94562.50;5028144;28;20029;-79
2022/10/23 10:13:35;;;;;;;2.35;1.50;;;;;;;18.24;42.36;94568.38;5028888;28;20033;-78
2022/10/23 10:16:27;;;;;;;4.93;1.38;;;;;;;18.42;41.34;94563.50;5036305;28;20041;-77
2022/10/23 10:19:10;;;;;;;2.78;1.50;;;;;;;18.48;41.12;94561.34;5020826;28;20136;-80
2022/10/23 10:22:00;;;;;;;2.90;1.50;;;;;;;18.64;40.92;94554.81;5028789;28;20035;-79
2022/10/23 10:24:40;;;;;;;1.48;1.35;;;;;;;18.73;40.70;94557.38;5028937;28;20029;-79
2022/10/23 10:27:24;;;;;;;12.48;2.17;;;;;;;18.59;39.31;94557.78;5027527;28;20025;-78
2022/10/23 10:30:22;;;;;;;2.88;1.70;;;;;;;18.26;40.71;94527.66;5036752;28;20018;-78
2022/10/23 10:33:05;;;;;;;4.38;1.85;;;;;;;18.48;40.86;94541.31;5030257;28;20500;-79
2022/10/23 10:35:47;;;;;;;2.15;1.20;;;;;;;18.49;39.44;94544.81;5030979;28;20057;-79
2022/10/23 10:38:31;;;;;;;1.65;1.08;;;;;;;18.63;38.78;94555.94;5031051;28;20045;-78
2022/10/23 10:41:21;;;;;;;2.10;1.17;;;;;;;18.69;38.50;94553.78;5031055;28;20095;-79
2022/10/23 10:44:01;;;;;;;1.95;1.45;;;;;;;18.70;38.15;94548.09;5031227;28;20090;-78
2022/10/23 10:46:35;;;;;;;2.38;1.73;;;;;;;18.74;38.82;94554.34;5030380;28;20029;-78
2022/10/23 10:49:04;;;;;;;2.38;1.45;;;;;;;18.82;39.14;94545.31;5028031;28;20031;-79
2022/10/23 10:51:51;;;;;;;1.40;1.30;;;;;;;18.72;38.16;94529.69;5031729;28;20055;-78
2022/10/23 10:54:38;;;;;;;1.40;1.00;;;;;;;18.91;38.55;94547.06;5029116;28;20032;-79
2022/10/23 10:57:13;;;;;;;2.45;1.23;;;;;;;18.84;37.40;94542.28;5031656;28;20044;-79
2022/10/23 10:59:41;;;;;;;2.10;1.13;;;;;;;18.87;37.20;94541.59;5037193;28;20392;-78
2022/10/23 11:02:24;;;;;;;3.85;1.52;;;;;;;18.98;37.66;94539.13;5029553;28;20543;-78
2022/10/23 11:05:02;;;;;;;2.88;1.67;;;;;;;18.92;37.70;94535.16;5031426;28;20032;-79
2022/10/23 11:07:33;;;;;;;2.72;2.28;;;;;;;18.95;37.71;94524.44;5030520;28;20468;-78
2022/10/23 11:10:03;;;;;;;1.90;1.25;;;;;;;18.80;36.42;94491.00;5032165;28;20039;-78
2022/10/23 11:12:28;;;;;;;5.32;1.73;;;;;;;18.88;36.59;94522.34;5030548;28;20477;-79
2022/10/23 11:14:55;;;;;;;2.35;1.60;;;;;;;18.81;36.89;94511.41;5030987;28;20156;-78
2022/10/23 11:17:36;;;;;;;1.65;1.40;;;;;;;18.87;37.07;94514.63;5031032;28;20263;-78
2022/10/23 11:20:12;;;;;;;3.67;1.30;;;;;;;18.60;36.95;94483.91;5033507;28;20507;-79
2022/10/23 11:22:50;;;;;;;1.40;1.30;;;;;;;18.85;37.41;94517.66;5029507;28;20378;-78
2022/10/23 11:25:39;;;;;;;3.42;1.15;;;;;;;18.85;37.66;94512.28;5031437;28;20524;-78
2022/10/23 11:28:20;;;;;;;6.43;1.73;;;;;;;18.96;37.83;94511.75;5029838;28;20477;-79
2022/10/23 11:30:48;;;;;;;3.15;1.50;;;;;;;19.10;37.80;94501.31;5029622;28;20491;-79
2022/10/23 11:33:34;;;;;;;2.60;1.17;;;;;;;19.17;36.10;94502.25;5027417;28;20033;-79
2022/10/23 11:36:06;;;;;;;1.80;1.00;;;;;;;19.12;35.80;94504.41;5029414;28;20463;-79
2022/10/23 11:38:37;;;;;;;1.45;1.05;;;;;;;19.08;36.34;94498.16;5026998;28;20044;-79
2022/10/23 11:41:14;;;;;;;2.05;1.50;;;;;;;19.12;36.36;94494.41;5030707;28;20036;-79
2022/10/23 11:43:55;;;;;;;4.38;2.50;;;;;;;19.25;36.54;94484.31;5034519;28;20513;-78